Time;durP1;ratioP1;P1;durP2;ratioP2;P2;SDS_P1;SDS_P2;PMS_P1;PMS_P2;Temp;Humidity;BMP_temperature;BMP_pressure;BME280_temperature;BME280_humidity;BME280_pressure;Samples;Min_cycle;Max_cycle;Signal;HPM_P1;HPM_P2
2022/08/20 00:00:34;;;;;;;1.37;1.37;;;;;;;;;;5074253;28;20532;-76
2022/08/20 00:03:03;;;;;;;2.37;2.17;;;;;;;;;;5073796;28;20445;-77
2022/08/20 00:05:33;;;;;;;1.70;1.60;;;;;;;;;;5076916;28;20831;-76
2022/08/20 00:08:00;;;;;;;1.87;1.77;;;;;;;;;;5077884;28;20457;-77
2022/08/20 00:10:28;;;;;;;1.90;1.80;;;;;;;;;;5081488;28;20441;-77
2022/08/20 00:12:55;;;;;;;1.67;1.57;;;;;;;;;;5078113;28;20486;-78
2022/08/20 00:15:27;;;;;;;1.77;1.67;;;;;;;;;;5075202;28;20480;-77
2022/08/20 00:17:54;;;;;;;1.73;1.63;;;;;;;;;;5074456;28;20491;-76
2022/08/20 00:20:23;;;;;;;2.30;2.07;;;;;;;;;;5073744;28;20433;-76
2022/08/20 00:22:51;;;;;;;1.90;1.80;;;;;;;;;;5073525;28;20439;-77
2022/08/20 00:25:19;;;;;;;1.43;1.40;;;;;;;;;;5073732;28;20457;-76
2022/08/20 00:27:46;;;;;;;2.20;2.10;;;;;;;;;;5073639;28;20494;-77
2022/08/20 00:30:15;;;;;;;1.80;1.70;;;;;;;;;;5073907;28;20951;-77
2022/08/20 00:32:43;;;;;;;3.07;2.07;;;;;;;;;;5073552;28;20772;-77
2022/08/20 00:35:10;;;;;;;2.77;1.93;;;;;;;;;;5074982;28;20583;-77
2022/08/20 00:37:37;;;;;;;1.87;1.67;;;;;;;;;;5073723;28;20494;-77
2022/08/20 00:40:07;;;;;;;1.70;1.60;;;;;;;;;;5074020;28;20441;-77
2022/08/20 00:42:40;;;;;;;1.73;1.63;;;;;;;;;;5073152;28;20448;-76
2022/08/20 00:45:07;;;;;;;1.90;1.70;;;;;;;;;;5073512;28;20521;-77
2022/08/20 00:47:34;;;;;;;1.77;1.53;;;;;;;;;;5073666;28;20445;-77
2022/08/20 00:50:01;;;;;;;1.30;1.30;;;;;;;;;;5073683;28;20455;-77
2022/08/20 00:52:29;;;;;;;1.50;1.47;;;;;;;;;;5073852;28;20838;-76
2022/08/20 00:54:58;;;;;;;1.80;1.70;;;;;;;;;;5073346;28;20522;-77
2022/08/20 00:57:30;;;;;;;1.90;1.77;;;;;;;;;;5073235;28;20551;-76
2022/08/20 00:59:58;;;;;;;1.80;1.70;;;;;;;;;;5073678;28;20523;-76
2022/08/20 01:02:26;;;;;;;2.27;1.83;;;;;;;;;;5073221;28;20797;-76
2022/08/20 01:04:54;;;;;;;1.47;1.47;;;;;;;;;;5073046;28;20548;-78
2022/08/20 01:07:26;;;;;;;1.90;1.80;;;;;;;;;;5072805;28;20723;-77
2022/08/20 01:09:53;;;;;;;1.73;1.63;;;;;;;;;;5074284;28;20981;-77
2022/08/20 01:12:22;;;;;;;2.40;2.20;;;;;;;;;;5093166;28;20510;-77
2022/08/20 01:14:50;;;;;;;1.70;1.60;;;;;;;;;;5092722;28;20487;-77
2022/08/20 01:17:20;;;;;;;4.70;1.90;;;;;;;;;;5093022;28;20443;-76
2022/08/20 01:19:49;;;;;;;2.20;1.83;;;;;;;;;;5093182;28;20448;-76
2022/08/20 01:25:08;;;;;;;2.00;1.90;;;;;;;;;;5075848;28;20453;-76
2022/08/20 01:27:37;;;;;;;2.40;1.80;;;;;;;;;;5102457;28;20428;-76
2022/08/20 01:30:05;;;;;;;1.73;1.63;;;;;;;;;;5101999;28;20493;-76
2022/08/20 01:32:32;;;;;;;2.63;1.60;;;;;;;;;;5101598;28;20444;-77
2022/08/20 01:34:59;;;;;;;2.33;1.60;;;;;;;;;;5096489;28;20490;-77
2022/08/20 01:37:26;;;;;;;1.47;1.37;;;;;;;;;;5093883;28;20443;-76
2022/08/20 01:39:53;;;;;;;1.80;1.70;;;;;;;;;;5093219;28;20493;-76
2022/08/20 01:42:22;;;;;;;1.60;1.50;;;;;;;;;;5093263;28;20444;-77
2022/08/20 01:44:51;;;;;;;1.60;1.30;;;;;;;;;;5092469;28;20497;-76
2022/08/20 01:47:22;;;;;;;1.57;1.50;;;;;;;;;;5092865;28;20440;-76
2022/08/20 01:49:50;;;;;;;1.50;1.50;;;;;;;;;;5093003;28;20436;-77
2022/08/20 01:52:20;;;;;;;1.97;1.40;;;;;;;;;;5092475;28;20439;-77
2022/08/20 01:54:47;;;;;;;1.70;1.60;;;;;;;;;;5091937;28;20541;-76
2022/08/20 01:57:15;;;;;;;1.90;1.80;;;;;;;;;;5092578;28;20592;-76
2022/08/20 01:59:42;;;;;;;1.97;1.87;;;;;;;;;;5092193;28;20444;-76
2022/08/20 02:02:12;;;;;;;3.13;1.90;;;;;;;;;;5092587;28;20504;-76
2022/08/20 02:04:40;;;;;;;1.87;1.60;;;;;;;;;;5092711;28;20530;-78
2022/08/20 02:07:08;;;;;;;1.47;1.43;;;;;;;;;;5092077;28;20593;-77
2022/08/20 02:09:38;;;;;;;1.43;1.33;;;;;;;;;;5091968;28;20500;-77
2022/08/20 02:12:06;;;;;;;1.37;1.37;;;;;;;;;;5072530;28;20860;-77
2022/08/20 02:14:33;;;;;;;2.37;1.47;;;;;;;;;;5071583;28;20490;-76
2022/08/20 02:17:00;;;;;;;1.93;1.83;;;;;;;;;;5072723;28;20461;-76
2022/08/20 02:19:32;;;;;;;1.17;1.17;;;;;;;;;;5072650;28;20868;-76
2022/08/20 02:22:01;;;;;;;1.60;1.50;;;;;;;;;;5072132;28;20440;-77
2022/08/20 02:24:28;;;;;;;1.57;1.57;;;;;;;;;;5071457;28;20440;-76
2022/08/20 02:26:55;;;;;;;1.20;1.20;;;;;;;;;;5071653;28;20469;-77
2022/08/20 02:29:24;;;;;;;2.10;1.90;;;;;;;;;;5072200;28;20441;-76
2022/08/20 02:31:53;;;;;;;1.80;1.70;;;;;;;;;;5071673;28;20498;-77
2022/08/20 02:34:20;;;;;;;2.50;1.60;;;;;;;;;;5071559;28;20451;-77
2022/08/20 02:36:49;;;;;;;1.60;1.50;;;;;;;;;;5071796;28;20534;-76
2022/08/20 02:39:16;;;;;;;4.07;1.70;;;;;;;;;;5071279;28;20532;-76
2022/08/20 02:41:43;;;;;;;1.60;1.60;;;;;;;;;;5071853;28;20453;-77
2022/08/20 02:44:11;;;;;;;1.70;1.60;;;;;;;;;;5071363;28;20440;-76
2022/08/20 02:46:38;;;;;;;1.87;1.77;;;;;;;;;;5071350;28;20460;-77
2022/08/20 02:49:05;;;;;;;3.10;1.50;;;;;;;;;;5071190;28;20490;-75
2022/08/20 02:51:32;;;;;;;1.50;1.50;;;;;;;;;;5071535;28;20940;-76
2022/08/20 02:54:01;;;;;;;2.60;1.83;;;;;;;;;;5070687;28;20527;-76
2022/08/20 02:56:28;;;;;;;1.50;1.40;;;;;;;;;;5070887;28;20995;-77
2022/08/20 02:58:55;;;;;;;1.97;1.77;;;;;;;;;;5071228;28;20490;-77
2022/08/20 03:01:22;;;;;;;1.70;1.60;;;;;;;;;;5071064;28;20449;-76
2022/08/20 03:03:49;;;;;;;1.50;1.50;;;;;;;;;;5070856;28;20482;-77
2022/08/20 03:06:16;;;;;;;2.03;1.87;;;;;;;;;;5070677;28;20461;-77
2022/08/20 03:08:43;;;;;;;1.40;1.37;;;;;;;;;;5070635;28;20945;-77
2022/08/20 03:11:12;;;;;;;1.90;1.80;;;;;;;;;;5083016;28;20439;-77
2022/08/20 03:13:39;;;;;;;1.70;1.60;;;;;;;;;;5090544;28;20907;-76
2022/08/20 03:16:06;;;;;;;1.97;1.83;;;;;;;;;;5091183;28;20566;-76
2022/08/20 03:18:34;;;;;;;2.03;1.93;;;;;;;;;;5091089;28;20501;-76
2022/08/20 03:21:02;;;;;;;2.30;2.20;;;;;;;;;;5090910;28;20447;-76
2022/08/20 03:23:29;;;;;;;1.93;1.80;;;;;;;;;;5090790;28;20485;-76
2022/08/20 03:25:56;;;;;;;2.30;2.20;;;;;;;;;;5090941;28;20459;-77
2022/08/20 03:28:25;;;;;;;2.33;2.23;;;;;;;;;;5091037;28;20447;-76
2022/08/20 03:30:53;;;;;;;2.10;2.00;;;;;;;;;;5091120;28;20518;-76
2022/08/20 03:33:21;;;;;;;2.10;2.00;;;;;;;;;;5090775;28;20447;-77
2022/08/20 03:35:48;;;;;;;2.60;2.40;;;;;;;;;;5091197;28;20525;-77
2022/08/20 03:38:16;;;;;;;2.00;1.90;;;;;;;;;;5091271;28;20500;-76
2022/08/20 03:40:44;;;;;;;2.03;1.93;;;;;;;;;;5090905;28;20943;-77
2022/08/20 03:43:11;;;;;;;2.10;2.00;;;;;;;;;;5090709;28;21010;-76
2022/08/20 03:45:42;;;;;;;2.33;2.13;;;;;;;;;;5093889;28;20460;-77
2022/08/20 03:48:10;;;;;;;2.27;2.17;;;;;;;;;;5094777;28;20451;-77
2022/08/20 03:50:41;;;;;;;2.47;2.37;;;;;;;;;;5094783;28;20440;-76
2022/08/20 03:53:08;;;;;;;2.50;2.40;;;;;;;;;;5094534;28;20447;-76
2022/08/20 03:55:36;;;;;;;2.60;2.50;;;;;;;;;;5094601;28;20479;-76
2022/08/20 03:58:05;;;;;;;2.73;2.53;;;;;;;;;;5094397;28;20436;-77
2022/08/20 04:00:34;;;;;;;3.00;2.80;;;;;;;;;;5094414;28;20447;-76
2022/08/20 04:03:02;;;;;;;2.77;2.57;;;;;;;;;;5094268;28;20435;-76
2022/08/20 04:05:30;;;;;;;2.73;2.50;;;;;;;;;;5094396;28;20455;-77
2022/08/20 04:07:58;;;;;;;2.77;2.67;;;;;;;;;;5094307;28;20454;-77
2022/08/20 04:10:25;;;;;;;2.60;2.40;;;;;;;;;;5088532;28;20437;-76
2022/08/20 04:12:53;;;;;;;2.60;2.50;;;;;;;;;;5073490;28;20449;-77
2022/08/20 04:15:23;;;;;;;4.13;2.80;;;;;;;;;;5073672;28;20463;-76
2022/08/20 04:17:51;;;;;;;3.30;2.73;;;;;;;;;;5073694;28;20994;-77
2022/08/20 04:20:22;;;;;;;2.80;2.70;;;;;;;;;;5073730;28;20459;-77
2022/08/20 04:22:49;;;;;;;2.73;2.53;;;;;;;;;;5073465;28;20448;-77
2022/08/20 04:25:16;;;;;;;2.70;2.60;;;;;;;;;;5073391;28;20473;-76
2022/08/20 04:27:44;;;;;;;3.33;3.13;;;;;;;;;;5073390;28;20940;-76
2022/08/20 04:30:12;;;;;;;3.53;3.27;;;;;;;;;;5073777;28;20441;-76
2022/08/20 04:32:40;;;;;;;4.00;3.20;;;;;;;;;;5072681;28;20514;-77
2022/08/20 04:35:08;;;;;;;3.37;3.20;;;;;;;;;;5088262;28;20573;-77
2022/08/20 04:37:38;;;;;;;3.67;3.37;;;;;;;;;;5093602;28;20536;-77
2022/08/20 04:42:50;;;;;;;4.30;3.90;;;;;;;;;;5093427;28;20437;-77
2022/08/20 04:45:18;;;;;;;9.73;5.33;;;;;;;;;;5093933;28;20512;-76
2022/08/20 04:47:45;;;;;;;4.67;4.27;;;;;;;;;;5094265;28;20448;-78
2022/08/20 04:50:13;;;;;;;5.23;4.23;;;;;;;;;;5089787;28;20448;-77
2022/08/20 04:52:41;;;;;;;4.27;4.03;;;;;;;;;;5093476;28;20444;-76
2022/08/20 04:55:09;;;;;;;5.27;3.87;;;;;;;;;;5093370;28;20811;-76
2022/08/20 04:57:37;;;;;;;3.80;3.60;;;;;;;;;;5093346;28;20526;-77
2022/08/20 05:00:05;;;;;;;4.27;3.90;;;;;;;;;;5088860;28;20456;-78
2022/08/20 05:02:32;;;;;;;4.10;3.80;;;;;;;;;;5093047;28;20530;-78
2022/08/20 05:04:59;;;;;;;4.40;4.10;;;;;;;;;;5093168;28;20485;-77
2022/08/20 05:07:26;;;;;;;4.00;3.70;;;;;;;;;;5088694;28;20512;-77
2022/08/20 05:09:54;;;;;;;3.70;3.50;;;;;;;;;;5089302;28;20440;-77
2022/08/20 05:12:21;;;;;;;4.57;4.30;;;;;;;;;;5093635;28;20481;-76
2022/08/20 05:14:48;;;;;;;4.07;3.77;;;;;;;;;;5093929;28;20443;-76
2022/08/20 05:17:16;;;;;;;4.37;4.10;;;;;;;;;;5093199;28;21009;-78
2022/08/20 05:19:45;;;;;;;4.33;3.93;;;;;;;;;;5093059;28;20501;-78
2022/08/20 05:22:12;;;;;;;4.30;3.97;;;;;;;;;;5093506;28;20439;-77
2022/08/20 05:24:39;;;;;;;4.20;3.90;;;;;;;;;;5093197;28;20443;-77
2022/08/20 05:27:08;;;;;;;4.00;3.80;;;;;;;;;;5093278;28;20486;-76
2022/08/20 05:29:35;;;;;;;6.27;5.30;;;;;;;;;;5093026;28;20939;-78
2022/08/20 05:32:02;;;;;;;4.30;4.00;;;;;;;;;;5091592;28;20436;-78
2022/08/20 05:34:29;;;;;;;4.53;4.23;;;;;;;;;;5089078;28;20981;-77
2022/08/20 05:36:57;;;;;;;4.60;4.30;;;;;;;;;;5093396;28;20476;-77
2022/08/20 05:39:24;;;;;;;4.77;4.40;;;;;;;;;;5093359;28;20436;-77
2022/08/20 05:41:51;;;;;;;4.83;4.50;;;;;;;;;;5092950;28;20497;-77
2022/08/20 05:44:20;;;;;;;4.53;4.23;;;;;;;;;;5092653;28;20534;-77
2022/08/20 05:46:48;;;;;;;4.33;4.03;;;;;;;;;;5092447;28;20467;-77
2022/08/20 05:49:16;;;;;;;4.80;4.50;;;;;;;;;;5093230;28;20849;-77
2022/08/20 05:51:43;;;;;;;4.47;4.17;;;;;;;;;;5092866;28;20470;-78
2022/08/20 05:54:10;;;;;;;4.57;4.23;;;;;;;;;;5092691;28;20462;-77
2022/08/20 05:56:37;;;;;;;4.63;4.23;;;;;;;;;;5092623;28;20851;-77
2022/08/20 05:59:05;;;;;;;4.50;4.10;;;;;;;;;;5100622;28;20443;-76
2022/08/20 06:01:34;;;;;;;5.40;5.10;;;;;;;;;;5103671;28;20501;-76
2022/08/20 06:06:46;;;;;;;5.00;4.70;;;;;;;;;;5102889;28;20451;-77
2022/08/20 06:09:13;;;;;;;4.80;4.40;;;;;;;;;;5102232;28;20440;-78
2022/08/20 06:11:40;;;;;;;4.97;4.67;;;;;;;;;;5094125;28;20485;-77
2022/08/20 06:14:07;;;;;;;4.70;4.40;;;;;;;;;;5092740;28;20489;-77
2022/08/20 06:16:35;;;;;;;5.33;4.93;;;;;;;;;;5092707;28;20491;-77
2022/08/20 06:19:03;;;;;;;4.87;4.57;;;;;;;;;;5092266;28;20450;-77
2022/08/20 06:21:30;;;;;;;5.43;4.90;;;;;;;;;;5092326;28;20443;-77
2022/08/20 06:23:57;;;;;;;4.93;4.63;;;;;;;;;;5092097;28;20451;-76
2022/08/20 06:26:24;;;;;;;4.73;4.33;;;;;;;;;;5092090;28;20459;-76
2022/08/20 06:28:51;;;;;;;4.97;4.67;;;;;;;;;;5092217;28;20444;-77
2022/08/20 06:31:18;;;;;;;5.43;4.93;;;;;;;;;;5092445;28;20489;-76
2022/08/20 06:33:46;;;;;;;4.37;4.07;;;;;;;;;;5092485;28;20539;-77
2022/08/20 06:36:13;;;;;;;6.00;4.57;;;;;;;;;;5092071;28;20488;-77
2022/08/20 06:38:41;;;;;;;4.57;4.27;;;;;;;;;;5092879;28;20807;-79
2022/08/20 06:41:08;;;;;;;4.30;3.90;;;;;;;;;;5092751;28;20448;-76
2022/08/20 06:43:35;;;;;;;4.80;4.40;;;;;;;;;;5092847;28;20451;-76
2022/08/20 06:46:02;;;;;;;4.63;4.33;;;;;;;;;;5092646;28;20471;-77
2022/08/20 06:48:29;;;;;;;4.47;4.17;;;;;;;;;;5092466;28;20451;-76
2022/08/20 06:50:57;;;;;;;4.60;4.20;;;;;;;;;;5092165;28;20439;-77
2022/08/20 06:53:24;;;;;;;4.80;4.50;;;;;;;;;;5091259;28;20761;-77
2022/08/20 06:55:53;;;;;;;4.73;4.43;;;;;;;;;;5091163;28;21002;-77
2022/08/20 06:58:21;;;;;;;4.30;4.00;;;;;;;;;;5091480;28;20475;-78
2022/08/20 07:00:48;;;;;;;4.67;4.37;;;;;;;;;;5091427;28;20471;-77
2022/08/20 07:03:15;;;;;;;5.30;4.80;;;;;;;;;;5092168;28;20444;-76
2022/08/20 07:05:43;;;;;;;4.57;4.20;;;;;;;;;;5091419;28;20971;-77
2022/08/20 07:08:13;;;;;;;4.53;4.23;;;;;;;;;;5091182;28;20440;-77
2022/08/20 07:10:41;;;;;;;5.43;4.37;;;;;;;;;;5091700;28;20562;-77
2022/08/20 07:13:08;;;;;;;4.60;4.30;;;;;;;;;;5091551;28;20488;-78
2022/08/20 07:15:35;;;;;;;4.70;4.30;;;;;;;;;;5091506;28;20455;-77
2022/08/20 07:18:04;;;;;;;4.50;4.10;;;;;;;;;;5092165;28;20533;-78
2022/08/20 07:20:32;;;;;;;5.07;4.67;;;;;;;;;;5095346;28;20444;-76
2022/08/20 07:23:00;;;;;;;6.00;4.60;;;;;;;;;;5095613;28;20974;-77
2022/08/20 07:25:29;;;;;;;4.30;4.00;;;;;;;;;;5095534;28;20622;-77
2022/08/20 07:28:01;;;;;;;4.27;3.90;;;;;;;;;;5095509;28;20505;-77
2022/08/20 07:33:13;;;;;;;3.90;3.70;;;;;;;;;;5095448;28;20898;-78
2022/08/20 07:35:40;;;;;;;4.60;4.30;;;;;;;;;;5095592;28;20464;-77
2022/08/20 07:38:07;;;;;;;3.70;3.50;;;;;;;;;;5095623;28;20484;-77
2022/08/20 07:40:36;;;;;;;4.83;4.43;;;;;;;;;;5095302;28;20508;-77
2022/08/20 07:43:03;;;;;;;4.27;3.87;;;;;;;;;;5094983;28;20439;-77
2022/08/20 07:45:30;;;;;;;4.77;4.40;;;;;;;;;;5095154;28;20520;-78
2022/08/20 07:48:06;;;;;;;4.40;4.03;;;;;;;;;;5095507;28;20513;-78
2022/08/20 07:50:33;;;;;;;3.70;3.40;;;;;;;;;;5095017;28;20443;-77
2022/08/20 07:53:00;;;;;;;4.30;4.00;;;;;;;;;;5095026;28;20801;-77
2022/08/20 07:55:28;;;;;;;4.20;3.90;;;;;;;;;;5095135;28;21037;-77
2022/08/20 07:57:58;;;;;;;4.53;4.20;;;;;;;;;;5094946;28;20486;-77
2022/08/20 08:00:26;;;;;;;4.43;4.03;;;;;;;;;;5094719;28;20862;-77
2022/08/20 08:02:53;;;;;;;4.70;4.40;;;;;;;;;;5094787;28;20451;-78
2022/08/20 08:05:20;;;;;;;4.37;4.07;;;;;;;;;;5094511;28;20991;-78
2022/08/20 08:07:47;;;;;;;4.67;4.27;;;;;;;;;;5095212;28;20509;-77
2022/08/20 08:10:17;;;;;;;5.17;4.77;;;;;;;;;;5094792;28;20474;-77
2022/08/20 08:12:46;;;;;;;6.20;3.70;;;;;;;;;;5094664;28;20447;-76
2022/08/20 08:15:16;;;;;;;3.77;3.53;;;;;;;;;;5096018;28;20490;-78
2022/08/20 08:17:43;;;;;;;4.67;4.37;;;;;;;;;;5094675;28;20483;-77
2022/08/20 08:20:12;;;;;;;4.27;3.97;;;;;;;;;;5095787;28;20444;-77
2022/08/20 08:22:41;;;;;;;4.30;4.00;;;;;;;;;;5094749;28;20443;-77
2022/08/20 08:25:09;;;;;;;4.50;4.17;;;;;;;;;;5095537;28;20490;-77
2022/08/20 08:27:36;;;;;;;3.97;3.70;;;;;;;;;;5094302;28;20911;-76
2022/08/20 08:30:04;;;;;;;4.67;4.00;;;;;;;;;;5094210;28;20512;-77
2022/08/20 08:32:32;;;;;;;4.53;4.13;;;;;;;;;;5094979;28;20452;-77
2022/08/20 08:35:03;;;;;;;4.27;3.97;;;;;;;;;;5094438;28;20505;-77
2022/08/20 08:37:30;;;;;;;4.33;4.03;;;;;;;;;;5094379;28;20475;-76
2022/08/20 08:39:57;;;;;;;4.53;4.20;;;;;;;;;;5094325;28;20458;-77
2022/08/20 08:42:27;;;;;;;4.00;3.80;;;;;;;;;;5093949;28;20448;-76
2022/08/20 08:44:54;;;;;;;4.00;3.80;;;;;;;;;;5094559;28;20467;-76
2022/08/20 08:47:24;;;;;;;4.73;4.33;;;;;;;;;;5094539;28;20459;-77
2022/08/20 08:49:53;;;;;;;3.97;3.77;;;;;;;;;;5094511;28;20432;-77
2022/08/20 08:52:21;;;;;;;4.30;3.90;;;;;;;;;;5093638;28;20443;-76
2022/08/20 08:54:50;;;;;;;3.73;3.50;;;;;;;;;;5093822;28;20924;-77
2022/08/20 08:57:17;;;;;;;4.00;3.80;;;;;;;;;;5094361;28;20475;-77
2022/08/20 08:59:49;;;;;;;4.50;4.20;;;;;;;;;;5094024;28;20883;-77
2022/08/20 09:02:19;;;;;;;4.20;4.00;;;;;;;;;;5095795;28;20472;-77
2022/08/20 09:04:46;;;;;;;4.57;4.17;;;;;;;;;;5094576;28;20432;-77
2022/08/20 09:07:15;;;;;;;4.67;4.37;;;;;;;;;;5095164;28;20520;-77
2022/08/20 09:09:43;;;;;;;4.47;4.20;;;;;;;;;;5093812;28;20446;-77
2022/08/20 09:12:12;;;;;;;3.63;3.43;;;;;;;;;;5094233;28;20452;-77
2022/08/20 09:14:39;;;;;;;4.63;4.33;;;;;;;;;;5094381;28;20436;-76
2022/08/20 09:17:07;;;;;;;4.90;4.33;;;;;;;;;;5093301;28;20567;-77
2022/08/20 09:19:34;;;;;;;4.60;4.30;;;;;;;;;;5093400;28;20435;-78
2022/08/20 09:22:06;;;;;;;5.23;4.90;;;;;;;;;;5093117;28;20455;-78
2022/08/20 09:24:35;;;;;;;4.70;4.30;;;;;;;;;;5093270;28;20497;-78
2022/08/20 09:27:02;;;;;;;4.53;3.37;;;;;;;;;;5093129;28;20464;-77
2022/08/20 09:29:31;;;;;;;2.90;2.70;;;;;;;;;;5093787;28;20493;-77
2022/08/20 09:32:04;;;;;;;2.40;2.30;;;;;;;;;;5093251;28;20448;-77
2022/08/20 09:34:31;;;;;;;2.80;2.07;;;;;;;;;;5093291;28;20424;-77
2022/08/20 09:36:58;;;;;;;2.20;1.90;;;;;;;;;;5093237;28;20512;-77
2022/08/20 09:39:26;;;;;;;2.60;2.40;;;;;;;;;;5093062;28;20478;-77
2022/08/20 09:41:54;;;;;;;2.57;2.43;;;;;;;;;;5092529;28;20483;-77
2022/08/20 09:44:21;;;;;;;1.90;1.80;;;;;;;;;;5092884;28;20506;-77
2022/08/20 09:46:49;;;;;;;2.50;2.30;;;;;;;;;;5093084;28;20524;-76
2022/08/20 09:49:16;;;;;;;2.30;2.10;;;;;;;;;;5092807;28;20439;-77
2022/08/20 09:51:43;;;;;;;2.83;2.67;;;;;;;;;;5092919;28;20452;-77
2022/08/20 09:54:10;;;;;;;2.87;2.67;;;;;;;;;;5092697;28;20549;-77
2022/08/20 09:56:37;;;;;;;2.63;2.53;;;;;;;;;;5092728;28;20869;-77
2022/08/20 09:59:05;;;;;;;2.30;2.20;;;;;;;;;;5092537;28;21161;-76
2022/08/20 10:01:33;;;;;;;2.37;2.27;;;;;;;;;;5092882;28;20440;-77
2022/08/20 10:04:00;;;;;;;2.20;2.10;;;;;;;;;;5092483;28;20931;-77
2022/08/20 10:06:27;;;;;;;2.13;1.77;;;;;;;;;;5092804;28;20878;-78
2022/08/20 10:08:54;;;;;;;1.50;1.40;;;;;;;;;;5093149;28;20976;-77
2022/08/20 10:11:21;;;;;;;1.80;1.70;;;;;;;;;;5096417;28;20485;-77
2022/08/20 10:13:48;;;;;;;1.63;1.53;;;;;;;;;;5093361;28;20499;-79
2022/08/20 10:16:16;;;;;;;1.80;1.80;;;;;;;;;;5093890;28;20468;-76
2022/08/20 10:18:43;;;;;;;1.97;1.87;;;;;;;;;;5104821;28;20498;-78
2022/08/20 10:21:11;;;;;;;4.23;2.40;;;;;;;;;;5104600;28;20473;-77
2022/08/20 10:23:38;;;;;;;1.40;1.40;;;;;;;;;;5094214;28;20440;-78
2022/08/20 10:26:05;;;;;;;1.23;1.20;;;;;;;;;;5093243;28;20463;-77
2022/08/20 10:28:32;;;;;;;0.90;0.80;;;;;;;;;;5093123;28;20432;-76
2022/08/20 10:30:59;;;;;;;0.90;0.90;;;;;;;;;;5092904;28;20443;-78
2022/08/20 10:33:27;;;;;;;0.70;0.70;;;;;;;;;;5092454;28;20454;-77
2022/08/20 10:35:54;;;;;;;0.77;0.70;;;;;;;;;;5092819;28;20468;-77
2022/08/20 10:38:21;;;;;;;0.60;0.60;;;;;;;;;;5091833;28;20528;-77
2022/08/20 10:40:48;;;;;;;1.70;0.87;;;;;;;;;;5092645;28;20432;-77
2022/08/20 10:43:15;;;;;;;0.70;0.70;;;;;;;;;;5092020;28;20999;-76
2022/08/20 10:45:42;;;;;;;0.83;0.83;;;;;;;;;;5091538;28;20452;-77
2022/08/20 10:48:09;;;;;;;1.03;0.60;;;;;;;;;;5092431;28;20461;-77
2022/08/20 10:50:38;;;;;;;0.60;0.60;;;;;;;;;;5094863;28;20436;-77
2022/08/20 10:53:05;;;;;;;1.37;0.90;;;;;;;;;;5094552;28;20448;-79
2022/08/20 10:55:32;;;;;;;1.20;1.13;;;;;;;;;;5093109;28;20471;-77
2022/08/20 10:57:59;;;;;;;0.90;0.90;;;;;;;;;;5091533;28;20517;-76
2022/08/20 11:00:26;;;;;;;1.00;1.00;;;;;;;;;;5093158;28;20443;-76
2022/08/20 11:02:53;;;;;;;1.00;0.90;;;;;;;;;;5092413;28;20509;-76
2022/08/20 11:05:20;;;;;;;1.53;1.10;;;;;;;;;;5092208;28;20596;-77
2022/08/20 11:07:49;;;;;;;1.10;1.00;;;;;;;;;;5092331;28;20443;-77
2022/08/20 11:10:16;;;;;;;1.17;1.03;;;;;;;;;;5093276;28;20504;-75
2022/08/20 11:12:43;;;;;;;0.90;0.90;;;;;;;;;;5092937;28;20493;-77
2022/08/20 11:15:11;;;;;;;0.97;0.77;;;;;;;;;;5093858;28;20459;-76
2022/08/20 11:17:40;;;;;;;0.60;0.60;;;;;;;;;;5092107;28;20500;-77
2022/08/20 11:20:08;;;;;;;0.60;0.60;;;;;;;;;;5092299;28;20447;-78
2022/08/20 11:22:35;;;;;;;0.83;0.83;;;;;;;;;;5092927;28;20501;-77
2022/08/20 11:25:04;;;;;;;2.67;0.80;;;;;;;;;;5092292;28;20444;-78
2022/08/20 11:27:33;;;;;;;0.70;0.70;;;;;;;;;;5093070;28;20436;-76
2022/08/20 11:30:00;;;;;;;1.10;1.00;;;;;;;;;;5092621;28;20444;-78
2022/08/20 11:32:27;;;;;;;0.90;0.90;;;;;;;;;;5092070;28;20447;-77
2022/08/20 11:34:54;;;;;;;0.83;0.80;;;;;;;;;;5092168;28;20943;-77
2022/08/20 11:37:24;;;;;;;0.77;0.77;;;;;;;;;;5077395;28;20527;-77
2022/08/20 11:39:51;;;;;;;0.80;0.70;;;;;;;;;;5092131;28;20825;-76
2022/08/20 11:42:19;;;;;;;1.43;0.73;;;;;;;;;;5079177;28;20452;-76
2022/08/20 11:44:47;;;;;;;0.80;0.80;;;;;;;;;;5092798;28;20447;-77
2022/08/20 11:47:20;;;;;;;0.70;0.70;;;;;;;;;;5090170;28;20563;-77
2022/08/20 11:49:47;;;;;;;1.00;1.00;;;;;;;;;;5087500;28;20447;-76
2022/08/20 11:52:14;;;;;;;0.73;0.73;;;;;;;;;;5087874;28;20444;-77
2022/08/20 11:54:43;;;;;;;0.57;0.57;;;;;;;;;;5088835;28;20821;-78
2022/08/20 11:57:10;;;;;;;0.60;0.60;;;;;;;;;;5083529;28;20468;-77
2022/08/20 11:59:38;;;;;;;0.50;0.50;;;;;;;;;;5091028;28;20483;-77
2022/08/20 12:02:05;;;;;;;2.10;0.77;;;;;;;;;;5090964;28;20444;-77
2022/08/20 12:04:32;;;;;;;0.87;0.87;;;;;;;;;;5090830;28;20444;-77
2022/08/20 12:07:07;;;;;;;0.80;0.80;;;;;;;;;;5094411;28;20880;-77
2022/08/20 12:09:34;;;;;;;2.00;0.70;;;;;;;;;;5086749;28;20837;-77
2022/08/20 12:12:02;;;;;;;1.63;1.53;;;;;;;;;;5094734;28;20439;-76
2022/08/20 12:14:29;;;;;;;0.93;0.93;;;;;;;;;;5094713;28;20443;-77
2022/08/20 12:16:57;;;;;;;1.23;0.70;;;;;;;;;;5095192;28;20467;-76
2022/08/20 12:19:25;;;;;;;0.97;0.80;;;;;;;;;;5095268;28;20483;-77
2022/08/20 12:21:52;;;;;;;1.00;1.00;;;;;;;;;;5094659;28;20432;-76
2022/08/20 12:24:19;;;;;;;1.00;1.00;;;;;;;;;;5094370;28;20935;-77
2022/08/20 12:26:46;;;;;;;0.90;0.90;;;;;;;;;;5094598;28;20460;-77
2022/08/20 12:29:13;;;;;;;0.90;0.90;;;;;;;;;;5095250;28;20474;-77
2022/08/20 12:31:40;;;;;;;0.93;0.80;;;;;;;;;;5094470;28;20440;-77
2022/08/20 12:34:08;;;;;;;0.90;0.90;;;;;;;;;;5094311;28;20451;-78
2022/08/20 12:36:35;;;;;;;0.80;0.80;;;;;;;;;;5094179;28;20460;-77
2022/08/20 12:39:02;;;;;;;0.90;0.90;;;;;;;;;;5091630;28;20472;-77
2022/08/20 12:41:30;;;;;;;0.93;0.93;;;;;;;;;;5084398;28;20448;-77
2022/08/20 12:43:57;;;;;;;0.70;0.63;;;;;;;;;;5089779;28;20440;-78
2022/08/20 12:46:24;;;;;;;1.00;0.90;;;;;;;;;;5094600;28;20876;-77
2022/08/20 12:48:52;;;;;;;0.90;0.90;;;;;;;;;;5094682;28;20432;-77
2022/08/20 12:51:20;;;;;;;1.10;1.10;;;;;;;;;;5094430;28;20888;-77
2022/08/20 12:53:47;;;;;;;0.83;0.83;;;;;;;;;;5093833;28;20440;-77
2022/08/20 12:56:14;;;;;;;1.00;1.00;;;;;;;;;;5094326;28;20459;-77
2022/08/20 12:58:41;;;;;;;1.20;1.20;;;;;;;;;;5094488;28;20581;-77
2022/08/20 13:01:08;;;;;;;0.97;0.97;;;;;;;;;;5093934;28;20505;-77
2022/08/20 13:03:35;;;;;;;1.50;1.40;;;;;;;;;;5094292;28;20482;-77
2022/08/20 13:06:02;;;;;;;2.90;1.90;;;;;;;;;;5095268;28;20466;-78
2022/08/20 13:08:31;;;;;;;2.40;2.17;;;;;;;;;;5093507;28;20444;-78
2022/08/20 13:10:58;;;;;;;2.60;2.17;;;;;;;;;;5093997;28;20935;-77
2022/08/20 13:13:25;;;;;;;5.30;2.40;;;;;;;;;;5094166;28;20440;-77
2022/08/20 13:15:52;;;;;;;1.60;1.50;;;;;;;;;;5093246;28;20877;-77
2022/08/20 13:18:19;;;;;;;2.80;1.80;;;;;;;;;;5085256;28;20453;-77
2022/08/20 13:20:46;;;;;;;1.50;1.40;;;;;;;;;;5093804;28;20496;-77
2022/08/20 13:23:13;;;;;;;1.37;1.37;;;;;;;;;;5093525;28;20479;-77
2022/08/20 13:25:42;;;;;;;1.50;1.40;;;;;;;;;;5093770;28;20468;-76
2022/08/20 13:28:09;;;;;;;1.63;1.50;;;;;;;;;;5093782;28;20497;-77
2022/08/20 13:30:37;;;;;;;2.03;1.80;;;;;;;;;;5093444;28;20959;-77
2022/08/20 13:33:04;;;;;;;1.87;1.77;;;;;;;;;;5094528;28;20444;-77
2022/08/20 13:35:31;;;;;;;2.70;2.03;;;;;;;;;;5094355;28;21022;-76
2022/08/20 13:37:59;;;;;;;2.00;1.80;;;;;;;;;;5094011;28;20512;-78
2022/08/20 13:40:26;;;;;;;2.10;2.00;;;;;;;;;;5094019;28;20480;-78
2022/08/20 13:42:54;;;;;;;1.83;1.73;;;;;;;;;;5093249;28;20811;-78
2022/08/20 13:45:21;;;;;;;2.30;1.90;;;;;;;;;;5093469;28;20490;-76
2022/08/20 13:47:51;;;;;;;3.40;2.47;;;;;;;;;;5093356;28;20439;-77
2022/08/20 13:50:20;;;;;;;2.07;1.97;;;;;;;;;;5093684;28;20469;-76
2022/08/20 13:52:47;;;;;;;2.27;2.00;;;;;;;;;;5092716;28;20477;-77
2022/08/20 13:55:18;;;;;;;2.43;2.23;;;;;;;;;;5093048;28;20459;-76
2022/08/20 13:57:45;;;;;;;2.43;2.33;;;;;;;;;;5095647;28;20481;-76
2022/08/20 14:00:16;;;;;;;1.77;1.67;;;;;;;;;;5094800;28;20475;-77
2022/08/20 14:02:43;;;;;;;1.60;1.50;;;;;;;;;;5093392;28;20537;-78
2022/08/20 14:05:11;;;;;;;2.67;2.33;;;;;;;;;;5093207;28;20471;-77
2022/08/20 14:07:38;;;;;;;2.80;2.23;;;;;;;;;;5092978;28;20448;-76
2022/08/20 14:10:07;;;;;;;2.87;2.67;;;;;;;;;;5090952;28;20436;-78
2022/08/20 14:12:34;;;;;;;3.07;2.77;;;;;;;;;;5072722;28;20441;-77
2022/08/20 14:15:01;;;;;;;2.60;2.40;;;;;;;;;;5073604;28;20433;-76
2022/08/20 14:17:30;;;;;;;3.43;2.63;;;;;;;;;;5074195;28;20806;-77
2022/08/20 14:19:58;;;;;;;2.47;2.27;;;;;;;;;;5075062;28;20472;-77
2022/08/20 14:22:25;;;;;;;2.87;2.10;;;;;;;;;;5076466;28;20449;-77
2022/08/20 14:24:52;;;;;;;2.00;1.90;;;;;;;;;;5075211;28;20494;-77
2022/08/20 14:27:22;;;;;;;2.10;1.60;;;;;;;;;;5072629;28;20877;-78
2022/08/20 14:29:50;;;;;;;1.53;1.43;;;;;;;;;;5072764;28;20925;-78
2022/08/20 14:32:17;;;;;;;1.53;1.43;;;;;;;;;;5073082;28;20452;-78
2022/08/20 14:34:45;;;;;;;1.37;1.27;;;;;;;;;;5082387;28;20437;-76
2022/08/20 14:37:14;;;;;;;1.67;1.40;;;;;;;;;;5093460;28;20483;-77
2022/08/20 14:39:41;;;;;;;1.50;1.30;;;;;;;;;;5093199;28;20473;-77
2022/08/20 14:42:08;;;;;;;1.50;1.50;;;;;;;;;;5092240;28;20436;-77
2022/08/20 14:44:36;;;;;;;1.33;1.33;;;;;;;;;;5092217;28;20441;-77
2022/08/20 14:47:14;;;;;;;1.30;1.30;;;;;;;;;;5091036;28;20461;-77
2022/08/20 14:49:41;;;;;;;1.63;1.53;;;;;;;;;;5088230;28;20870;-77
2022/08/20 14:52:09;;;;;;;1.37;1.37;;;;;;;;;;5077753;28;20444;-75
2022/08/20 14:54:36;;;;;;;1.43;1.43;;;;;;;;;;5076088;28;20440;-77
2022/08/20 14:57:04;;;;;;;1.70;1.60;;;;;;;;;;5075719;28;20483;-77